Time;durP1;ratioP1;P1;durP2;ratioP2;P2;SDS_P1;SDS_P2;PMS_P1;PMS_P2;Temp;Humidity;BMP_temperature;BMP_pressure;BME280_temperature;BME280_humidity;BME280_pressure;Samples;Min_cycle;Max_cycle;Signal;HPM_P1;HPM_P2
2022/03/29 00:00:13;;;;;;;;;;;;;;;10.98;50.63;99943.19;3149066;28;19934;-68
2022/03/29 00:01:45;;;;;;;;;;;;;;;10.97;50.68;99946.69;3145610;28;19928;-68
2022/03/29 00:03:17;;;;;;;;;;;;;;;10.95;50.88;99943.34;3140804;28;19942;-69
2022/03/29 00:04:50;;;;;;;;;;;;;;;10.94;50.86;99945.06;3145742;28;19932;-68
2022/03/29 00:06:21;;;;;;;;;;;;;;;10.92;50.85;99944.31;3148477;28;19996;-68
2022/03/29 00:07:53;;;;;;;;;;;;;;;10.90;50.94;99944.38;3140525;28;20777;-68
2022/03/29 00:09:25;;;;;;;;;;;;;;;10.89;50.75;99936.63;3136230;28;19996;-69
2022/03/29 00:10:57;;;;;;;;;;;;;;;10.72;50.99;99913.09;3136859;28;20455;-69
2022/03/29 00:12:29;;;;;;;;;;;;;;;10.87;51.06;99933.25;3135869;28;20016;-69
2022/03/29 00:14:02;;;;;;;;;;;;;;;10.85;50.91;99940.28;3142117;28;19928;-69
2022/03/29 00:15:34;;;;;;;;;;;;;;;10.85;51.14;99937.66;3132334;28;19939;-69
2022/03/29 00:17:06;;;;;;;;;;;;;;;10.83;50.99;99937.75;3139475;28;19935;-68
2022/03/29 00:18:38;;;;;;;;;;;;;;;10.82;51.18;99935.19;3137265;28;19982;-68
2022/03/29 00:20:11;;;;;;;;;;;;;;;10.81;51.33;99931.75;3137083;28;19929;-68
2022/03/29 00:21:43;;;;;;;;;;;;;;;10.80;51.44;99934.44;3138854;28;19934;-68
2022/03/29 00:23:15;;;;;;;;;;;;;;;10.79;51.20;99932.72;3135960;28;19944;-67
2022/03/29 00:24:47;;;;;;;;;;;;;;;10.77;51.28;99927.59;3139261;28;19932;-67
2022/03/29 00:26:18;;;;;;;;;;;;;;;10.77;51.41;99932.81;3136134;28;20203;-67
2022/03/29 00:27:50;;;;;;;;;;;;;;;10.76;51.38;99930.25;3134832;28;20384;-67
2022/03/29 00:29:22;;;;;;;;;;;;;;;10.75;51.45;99937.22;3135836;28;19935;-67
2022/03/29 00:30:54;;;;;;;;;;;;;;;10.74;51.71;99937.28;3137034;28;20484;-72
2022/03/29 00:32:25;;;;;;;;;;;;;;;10.72;51.80;99934.75;3136322;28;20103;-73
2022/03/29 00:33:57;;;;;;;;;;;;;;;10.73;51.71;99935.59;3137055;28;19983;-69
2022/03/29 00:35:30;;;;;;;;;;;;;;;10.55;52.04;99912.03;3135923;28;19948;-69
2022/03/29 00:37:02;;;;;;;;;;;;;;;10.69;51.94;99927.94;3136552;28;20325;-69
2022/03/29 00:38:34;;;;;;;;;;;;;;;10.69;52.12;99927.09;3141135;28;20464;-67
2022/03/29 00:40:07;;;;;;;;;;;;;;;10.67;51.99;99926.28;3131491;28;19928;-70
2022/03/29 00:41:38;;;;;;;;;;;;;;;10.65;52.24;99928.97;3142409;28;19936;-70
2022/03/29 00:43:10;;;;;;;;;;;;;;;10.64;52.39;99929.88;3135283;28;19928;-71
2022/03/29 00:44:42;;;;;;;;;;;;;;;10.63;52.08;99928.19;3140177;28;19975;-72
2022/03/29 00:46:13;;;;;;;;;;;;;;;10.61;52.38;99919.59;3135317;28;20473;-71
2022/03/29 00:47:45;;;;;;;;;;;;;;;10.42;52.27;99896.13;3138222;28;20066;-69
2022/03/29 00:49:16;;;;;;;;;;;;;;;10.57;52.32;99918.03;3135795;28;20321;-72
2022/03/29 00:50:50;;;;;;;;;;;;;;;10.56;52.60;99911.16;3138195;28;19929;-72
2022/03/29 00:52:21;;;;;;;;;;;;;;;10.55;52.63;99911.22;3129074;28;19928;-73
2022/03/29 00:53:53;;;;;;;;;;;;;;;10.54;52.56;99915.56;3135790;28;20415;-73
2022/03/29 00:55:25;;;;;;;;;;;;;;;10.53;52.67;99907.81;3137767;28;19938;-72
2022/03/29 00:56:56;;;;;;;;;;;;;;;10.51;52.46;99913.09;3135205;28;19936;-71
2022/03/29 00:58:28;;;;;;;;;;;;;;;10.48;52.73;99908.03;3136895;28;20409;-68
2022/03/29 01:00:00;;;;;;;;;;;;;;;10.46;52.59;99902.03;3135586;28;19936;-68
2022/03/29 01:01:32;;;;;;;;;;;;;;;10.43;52.64;99900.41;3136127;28;19990;-68
2022/03/29 01:03:04;;;;;;;;;;;;;;;10.42;52.88;99903.94;3135786;28;19935;-72
2022/03/29 01:04:36;;;;;;;;;;;;;;;10.40;52.77;99899.69;3140036;28;20037;-71
2022/03/29 01:06:09;;;;;;;;;;;;;;;10.37;52.67;99897.22;3136062;28;19944;-71
2022/03/29 01:07:41;;;;;;;;;;;;;;;10.34;53.01;99895.59;3136435;28;19959;-70
2022/03/29 01:09:13;;;;;;;;;;;;;;;10.33;53.05;99893.06;3136104;28;20467;-72
2022/03/29 01:10:45;;;;;;;;;;;;;;;10.31;52.94;99894.88;3135029;28;20698;-73
2022/03/29 01:12:17;;;;;;;;;;;;;;;10.29;53.09;99891.50;3134784;28;20580;-73
2022/03/29 01:13:49;;;;;;;;;;;;;;;10.26;53.24;99884.63;3135529;28;20048;-68
2022/03/29 01:15:21;;;;;;;;;;;;;;;10.22;53.17;99885.69;3138773;28;20443;-70
2022/03/29 01:18:42;;;;;;;;;;;;;;;10.17;53.13;99883.25;3136919;28;19968;-68
2022/03/29 01:20:15;;;;;;;;;;;;;;;10.14;53.44;99880.78;3134811;28;19936;-69
2022/03/29 01:21:52;;;;;;;;;;;;;;;10.12;53.22;99879.19;3137540;28;20394;-68
2022/03/29 01:23:24;;;;;;;;;;;;;;;10.09;53.21;99874.94;3136328;28;20487;-68
2022/03/29 01:24:56;;;;;;;;;;;;;;;10.07;53.45;99873.31;3136709;28;20702;-68
2022/03/29 01:26:28;;;;;;;;;;;;;;;10.05;53.55;99872.53;3134564;28;19940;-70
2022/03/29 01:28:00;;;;;;;;;;;;;;;10.01;53.53;99877.00;3136112;28;19934;-71
2022/03/29 01:29:32;;;;;;;;;;;;;;;9.99;53.43;99869.25;3135192;28;19982;-69
2022/03/29 01:31:04;;;;;;;;;;;;;;;9.98;53.72;99861.53;3135307;28;19929;-69
2022/03/29 01:32:36;;;;;;;;;;;;;;;9.96;53.71;99869.38;3136998;28;19929;-73
2022/03/29 01:34:08;;;;;;;;;;;;;;;9.94;53.71;99855.63;3129191;28;20054;-70
2022/03/29 01:35:40;;;;;;;;;;;;;;;9.91;53.72;99855.75;3139423;28;19932;-73
2022/03/29 01:37:13;;;;;;;;;;;;;;;9.89;53.72;99848.91;3136076;28;19928;-73
2022/03/29 01:38:46;;;;;;;;;;;;;;;9.87;53.93;99848.97;3140348;28;20036;-73
2022/03/29 01:40:19;;;;;;;;;;;;;;;9.86;53.91;99847.28;3136197;28;19993;-72
2022/03/29 01:41:51;;;;;;;;;;;;;;;9.84;53.80;99848.25;3138214;28;19928;-73
2022/03/29 01:43:22;;;;;;;;;;;;;;;9.83;53.75;99846.56;3135040;28;20477;-73
2022/03/29 01:44:54;;;;;;;;;;;;;;;9.82;53.86;99843.13;3137165;28;19990;-73
2022/03/29 01:46:28;;;;;;;;;;;;;;;9.80;53.89;99843.19;3134615;28;19929;-73
2022/03/29 01:48:00;;;;;;;;;;;;;;;9.79;54.00;99844.09;3134984;28;19927;-72
2022/03/29 01:49:32;;;;;;;;;;;;;;;9.77;54.01;99838.09;3134950;28;20055;-72
2022/03/29 01:51:04;;;;;;;;;;;;;;;9.76;54.07;99846.81;3135986;28;19929;-72
2022/03/29 01:52:41;;;;;;;;;;;;;;;9.74;53.98;99833.03;3142180;28;20473;-72
2022/03/29 01:54:11;;;;;;;;;;;;;;;9.73;53.98;99835.69;3134858;28;19928;-72
2022/03/29 01:55:45;;;;;;;;;;;;;;;9.72;54.05;99834.84;3140258;28;19928;-71
2022/03/29 01:57:16;;;;;;;;;;;;;;;9.71;54.08;99829.72;3135858;28;19939;-73
2022/03/29 01:58:48;;;;;;;;;;;;;;;9.68;54.24;99828.09;3139790;28;19943;-71
2022/03/29 02:00:31;;;;;;;;;;;;;;;9.68;54.18;99825.47;3135475;28;19935;-73
2022/03/29 02:02:03;;;;;;;;;;;;;;;9.67;54.41;99823.81;3143372;28;19932;-73
2022/03/29 02:03:34;;;;;;;;;;;;;;;9.66;54.18;99819.50;3137993;28;20011;-69
2022/03/29 02:05:06;;;;;;;;;;;;;;;9.66;54.33;99822.09;3136622;28;19936;-69
2022/03/29 02:06:38;;;;;;;;;;;;;;;9.64;54.30;99818.69;3136726;28;20042;-68
2022/03/29 02:08:13;;;;;;;;;;;;;;;9.63;54.31;99817.00;3135754;28;19928;-68
2022/03/29 02:09:44;;;;;;;;;;;;;;;9.62;54.25;99817.09;3134797;28;20266;-69
2022/03/29 02:11:16;;;;;;;;;;;;;;;9.61;54.27;99810.19;3134561;28;19929;-68
2022/03/29 02:12:48;;;;;;;;;;;;;;;9.59;54.31;99807.66;3136742;28;20027;-67
2022/03/29 02:14:19;;;;;;;;;;;;;;;9.59;54.20;99814.63;3135608;28;19985;-71
2022/03/29 02:15:52;;;;;;;;;;;;;;;9.57;54.36;99812.91;3129275;28;19939;-71
2022/03/29 02:17:23;;;;;;;;;;;;;;;9.55;54.37;99809.53;3135160;28;19951;-71
2022/03/29 02:18:55;;;;;;;;;;;;;;;9.54;54.51;99805.22;3138283;28;19978;-72
2022/03/29 02:20:28;;;;;;;;;;;;;;;9.53;54.56;99806.16;3137284;28;20424;-71
2022/03/29 02:22:00;;;;;;;;;;;;;;;9.51;54.49;99805.34;3135734;28;20332;-71
2022/03/29 02:23:33;;;;;;;;;;;;;;;9.51;54.58;99807.13;3139757;28;19935;-69
2022/03/29 02:25:05;;;;;;;;;;;;;;;9.49;54.66;99806.31;3135195;28;20312;-69
2022/03/29 02:26:37;;;;;;;;;;;;;;;9.47;54.57;99798.59;3139070;28;20175;-69
2022/03/29 02:28:09;;;;;;;;;;;;;;;9.46;54.78;99799.50;3135210;28;19932;-71
2022/03/29 02:29:41;;;;;;;;;;;;;;;9.45;54.98;99809.97;3139820;28;19957;-71
2022/03/29 02:31:12;;;;;;;;;;;;;;;9.42;54.76;99800.53;3137395;28;20284;-70
2022/03/29 02:32:44;;;;;;;;;;;;;;;9.42;54.81;99795.34;3139881;28;19986;-70
2022/03/29 02:34:16;;;;;;;;;;;;;;;9.41;54.92;99800.63;3137713;28;19929;-70
2022/03/29 02:35:48;;;;;;;;;;;;;;;9.38;54.85;99804.19;3138551;28;20001;-71
2022/03/29 02:37:18;;;;;;;;;;;;;;;9.25;55.00;99780.41;3136545;28;19928;-70
2022/03/29 02:38:51;;;;;;;;;;;;;;;9.34;54.90;99800.84;3137189;28;20329;-70
2022/03/29 02:40:23;;;;;;;;;;;;;;;9.20;55.23;99781.50;3137212;28;19930;-70
2022/03/29 02:41:55;;;;;;;;;;;;;;;9.31;55.18;99800.13;3137551;28;20330;-70
2022/03/29 02:43:27;;;;;;;;;;;;;;;9.30;55.54;99804.47;3137235;28;19940;-71
2022/03/29 02:44:58;;;;;;;;;;;;;;;9.25;55.49;99798.59;3136465;28;19928;-71
2022/03/29 02:46:30;;;;;;;;;;;;;;;9.24;55.61;99799.53;3141510;28;20368;-71
2022/03/29 02:48:02;;;;;;;;;;;;;;;9.21;55.57;99798.81;3136925;28;20679;-70
2022/03/29 02:49:34;;;;;;;;;;;;;;;9.18;55.60;99794.56;3142203;28;19935;-67
2022/03/29 02:51:06;;;;;;;;;;;;;;;9.15;55.70;99797.28;3137738;28;19936;-69
2022/03/29 02:52:42;;;;;;;;;;;;;;;9.13;55.71;99786.09;3138162;28;19947;-68
2022/03/29 02:54:15;;;;;;;;;;;;;;;9.10;55.97;99784.47;3136298;28;19936;-67
2022/03/29 02:55:47;;;;;;;;;;;;;;;9.08;55.85;99788.91;3136627;28;20421;-67
2022/03/29 02:57:19;;;;;;;;;;;;;;;9.05;56.19;99782.94;3138096;28;20392;-67
2022/03/29 02:58:51;;;;;;;;;;;;;;;9.03;56.12;99785.63;3140567;28;20262;-68
2022/03/29 03:00:23;;;;;;;;;;;;;;;9.01;56.02;99773.59;3139157;28;20390;-68
2022/03/29 03:01:54;;;;;;;;;;;;;;;8.99;56.13;99775.41;3136636;28;19928;-68
2022/03/29 03:03:26;;;;;;;;;;;;;;;8.97;56.33;99774.63;3139453;28;19987;-70
2022/03/29 03:04:58;;;;;;;;;;;;;;;8.95;56.43;99768.66;3135087;28;19935;-71
2022/03/29 03:06:29;;;;;;;;;;;;;;;8.91;56.16;99772.28;3140748;28;19978;-71
2022/03/29 03:08:02;;;;;;;;;;;;;;;8.87;56.44;99769.81;3138283;28;20240;-68
2022/03/29 03:09:35;;;;;;;;;;;;;;;8.86;56.59;99768.09;3138917;28;19939;-67
2022/03/29 03:11:07;;;;;;;;;;;;;;;8.84;56.44;99766.47;3139537;28;19978;-68
2022/03/29 03:12:39;;;;;;;;;;;;;;;8.82;56.62;99773.47;3136794;28;19928;-68
2022/03/29 03:14:11;;;;;;;;;;;;;;;8.81;56.53;99769.16;3141814;28;20557;-71
2022/03/29 03:15:43;;;;;;;;;;;;;;;8.79;56.75;99769.25;3137115;28;19984;-71
2022/03/29 03:17:15;;;;;;;;;;;;;;;8.78;56.72;99772.72;3138055;28;19978;-71
2022/03/29 03:18:46;;;;;;;;;;;;;;;8.76;56.61;99765.94;3137523;28;20300;-71
2022/03/29 03:20:18;;;;;;;;;;;;;;;8.73;57.01;99766.88;3137865;28;20488;-71
2022/03/29 03:21:50;;;;;;;;;;;;;;;8.71;56.98;99767.84;3136818;28;19993;-68
2022/03/29 03:23:20;;;;;;;;;;;;;;;8.70;56.98;99768.75;3137591;28;20086;-68
2022/03/29 03:24:53;;;;;;;;;;;;;;;8.68;56.92;99770.56;3136747;28;19928;-69
2022/03/29 03:26:25;;;;;;;;;;;;;;;8.65;57.22;99761.97;3138277;28;19959;-68
2022/03/29 03:27:57;;;;;;;;;;;;;;;8.64;57.08;99770.69;3136325;28;20405;-68
2022/03/29 03:29:29;;;;;;;;;;;;;;;8.63;57.03;99765.53;3136625;28;20703;-68
2022/03/29 03:31:00;;;;;;;;;;;;;;;8.63;57.22;99770.72;3136632;28;19928;-69
2022/03/29 03:32:33;;;;;;;;;;;;;;;8.58;57.34;99765.72;3137301;28;19933;-68
2022/03/29 03:34:04;;;;;;;;;;;;;;;8.58;57.24;99770.91;3141859;28;19939;-68
2022/03/29 03:35:36;;;;;;;;;;;;;;;8.56;57.24;99767.50;3136664;28;19950;-70
2022/03/29 03:37:08;;;;;;;;;;;;;;;8.53;57.47;99767.63;3141459;28;20458;-71
2022/03/29 03:38:39;;;;;;;;;;;;;;;8.52;57.46;99772.88;3136793;28;19932;-69
2022/03/29 03:40:13;;;;;;;;;;;;;;;8.50;57.57;99775.53;3134936;28;20016;-69
2022/03/29 03:41:47;;;;;;;;;;;;;;;8.49;57.55;99771.25;3136261;28;20413;-69
2022/03/29 03:43:19;;;;;;;;;;;;;;;8.47;57.70;99767.03;3136990;28;19936;-72
2022/03/29 03:44:51;;;;;;;;;;;;;;;8.46;57.60;99771.38;3137787;28;19928;-72
2022/03/29 03:46:23;;;;;;;;;;;;;;;8.45;57.75;99771.41;3136835;28;20379;-72
2022/03/29 03:47:55;;;;;;;;;;;;;;;8.44;57.92;99778.34;3143582;28;19928;-73
2022/03/29 03:49:27;;;;;;;;;;;;;;;8.42;57.88;99775.81;3138593;28;20019;-73
2022/03/29 03:51:02;;;;;;;;;;;;;;;8.41;58.03;99774.13;3141154;28;19971;-72
2022/03/29 03:52:34;;;;;;;;;;;;;;;8.40;57.85;99779.34;3135708;28;19928;-71
2022/03/29 03:54:06;;;;;;;;;;;;;;;8.38;57.87;99774.22;3136660;28;20155;-71
2022/03/29 03:55:39;;;;;;;;;;;;;;;8.37;58.03;99777.72;3136044;28;20205;-71
2022/03/29 03:57:10;;;;;;;;;;;;;;;8.37;58.09;99777.72;3145889;28;20054;-70
2022/03/29 03:58:42;;;;;;;;;;;;;;;8.35;58.10;99774.31;3137452;28;20385;-67
2022/03/29 04:00:24;;;;;;;;;;;;;;;8.35;58.13;99782.09;3144013;28;19932;-71
2022/03/29 04:01:55;;;;;;;;;;;;;;;8.34;58.25;99776.94;3147666;28;19924;-67
2022/03/29 04:03:27;;;;;;;;;;;;;;;8.34;58.18;99784.72;3145486;28;19928;-72
2022/03/29 04:04:59;;;;;;;;;;;;;;;8.32;58.27;99778.78;3141667;28;19924;-73
2022/03/29 04:06:30;;;;;;;;;;;;;;;8.31;58.19;99780.53;3145420;28;20378;-73
2022/03/29 04:08:02;;;;;;;;;;;;;;;8.16;58.20;99757.69;3149374;28;19931;-72
2022/03/29 04:09:35;;;;;;;;;;;;;;;8.27;58.25;99776.31;3145272;28;19925;-72
2022/03/29 04:11:08;;;;;;;;;;;;;;;8.28;58.45;99778.03;3148208;28;19936;-71
2022/03/29 04:12:40;;;;;;;;;;;;;;;8.27;58.37;99776.31;3145269;28;19928;-69
2022/03/29 04:14:11;;;;;;;;;;;;;;;8.27;58.32;99778.09;3147000;28;19935;-68
2022/03/29 04:15:43;;;;;;;;;;;;;;;8.26;58.50;99779.84;3145628;28;19925;-72
2022/03/29 04:17:14;;;;;;;;;;;;;;;8.27;58.54;99776.31;3146861;28;20385;-73
2022/03/29 04:18:46;;;;;;;;;;;;;;;8.26;58.65;99768.63;3144916;28;19958;-71
2022/03/29 04:20:18;;;;;;;;;;;;;;;8.28;58.52;99772.84;3145618;28;19932;-71
2022/03/29 04:21:49;;;;;;;;;;;;;;;8.29;58.64;99771.94;3146628;28;20009;-72
2022/03/29 04:23:20;;;;;;;;;;;;;;;8.32;58.59;99771.81;3145333;28;19928;-68
2022/03/29 04:24:52;;;;;;;;;;;;;;;8.35;58.63;99773.47;3150732;28;19925;-71
2022/03/29 04:26:25;;;;;;;;;;;;;;;8.38;58.60;99774.22;3145412;28;19982;-72
2022/03/29 04:27:56;;;;;;;;;;;;;;;8.43;58.38;99777.50;3149813;28;19928;-69
2022/03/29 04:29:28;;;;;;;;;;;;;;;8.47;58.51;99767.84;3145372;28;20306;-72
2022/03/29 04:31:00;;;;;;;;;;;;;;;8.52;58.40;99776.31;3151175;28;19928;-69
2022/03/29 04:32:31;;;;;;;;;;;;;;;8.58;58.41;99777.84;3138669;28;19929;-69
2022/03/29 04:34:04;;;;;;;;;;;;;;;8.63;58.12;99770.72;3146610;28;19924;-69
2022/03/29 04:35:35;;;;;;;;;;;;;;;8.69;58.22;99770.47;3146653;28;20356;-70
2022/03/29 04:37:07;;;;;;;;;;;;;;;8.75;58.11;99775.44;3145377;28;19928;-67
2022/03/29 04:38:39;;;;;;;;;;;;;;;8.81;58.03;99772.59;3147386;28;19931;-68
2022/03/29 04:40:11;;;;;;;;;;;;;;;8.89;57.84;99782.72;3145101;28;19935;-69
2022/03/29 04:41:44;;;;;;;;;;;;;;;8.97;57.85;99780.69;3146608;28;19985;-71
2022/03/29 04:43:15;;;;;;;;;;;;;;;9.05;57.80;99778.63;3145091;28;19939;-69
2022/03/29 04:44:47;;;;;;;;;;;;;;;9.13;57.63;99783.50;3146007;28;19989;-72
2022/03/29 04:46:19;;;;;;;;;;;;;;;9.22;57.43;99774.50;3144931;28;20354;-68
2022/03/29 04:47:50;;;;;;;;;;;;;;;9.29;57.53;99778.56;3146757;28;19965;-71
2022/03/29 04:49:22;;;;;;;;;;;;;;;9.38;57.20;99782.56;3144952;28;19940;-69
2022/03/29 04:50:53;;;;;;;;;;;;;;;9.45;57.28;99773.56;3145344;28;20312;-68
2022/03/29 04:52:25;;;;;;;;;;;;;;;9.54;57.20;99778.41;3145635;28;20001;-68
2022/03/29 04:53:56;;;;;;;;;;;;;;;9.63;56.92;99778.00;3149392;28;20321;-71
2022/03/29 04:55:28;;;;;;;;;;;;;;;9.71;56.67;99775.94;3149536;28;19925;-68
2022/03/29 04:57:02;;;;;;;;;;;;;;;9.80;56.47;99780.75;3145976;28;19997;-72
2022/03/29 04:58:33;;;;;;;;;;;;;;;9.89;56.52;99781.28;3148335;28;20390;-68
2022/03/29 05:00:06;;;;;;;;;;;;;;;9.97;56.47;99785.25;3144957;28;19924;-68
2022/03/29 05:01:39;;;;;;;;;;;;;;;10.07;56.13;99779.66;3145022;28;20014;-70
2022/03/29 05:03:11;;;;;;;;;;;;;;;10.15;55.96;99778.41;3144635;28;20472;-68
2022/03/29 05:04:42;;;;;;;;;;;;;;;10.25;55.86;99774.47;3146239;28;19931;-68
2022/03/29 05:06:16;;;;;;;;;;;;;;;10.32;55.90;99772.47;3144645;28;19982;-70
2022/03/29 05:07:48;;;;;;;;;;;;;;;10.42;55.39;99778.13;3145192;28;20011;-70
2022/03/29 05:09:19;;;;;;;;;;;;;;;10.52;55.29;99773.34;3144546;28;19934;-68
2022/03/29 05:10:51;;;;;;;;;;;;;;;10.61;55.16;99773.75;3145140;28;19978;-70
2022/03/29 05:12:24;;;;;;;;;;;;;;;10.70;54.67;99767.28;3151202;28;19924;-70
2022/03/29 05:13:56;;;;;;;;;;;;;;;10.76;54.56;99756.56;3144035;28;19928;-68
2022/03/29 05:15:27;;;;;;;;;;;;;;;10.85;54.52;99771.78;3149986;28;19931;-68
2022/03/29 05:16:59;;;;;;;;;;;;;;;10.95;54.00;99772.22;3144585;28;19947;-70
2022/03/29 05:18:30;;;;;;;;;;;;;;;11.04;53.78;99766.56;3149425;28;19950;-71
2022/03/29 05:20:03;;;;;;;;;;;;;;;11.12;53.77;99768.78;3145178;28;19928;-70
2022/03/29 05:21:34;;;;;;;;;;;;;;;11.21;53.33;99768.38;3147079;28;19924;-69
2022/03/29 05:23:08;;;;;;;;;;;;;;;11.29;53.38;99775.81;3145934;28;19997;-68
2022/03/29 05:24:39;;;;;;;;;;;;;;;11.39;53.03;99762.25;3145003;28;19925;-68
2022/03/29 05:26:11;;;;;;;;;;;;;;;11.50;52.62;99772.13;3142231;28;20315;-72
2022/03/29 05:27:44;;;;;;;;;;;;;;;11.64;52.46;99765.41;3149160;28;19932;-72
2022/03/29 05:29:18;;;;;;;;;;;;;;;11.73;52.13;99772.78;3148388;28;20362;-72
2022/03/29 05:30:50;;;;;;;;;;;;;;;11.83;51.76;99779.19;3146726;28;19925;-72
2022/03/29 05:32:21;;;;;;;;;;;;;;;11.91;51.52;99781.47;3150139;28;20327;-72
2022/03/29 05:33:53;;;;;;;;;;;;;;;12.03;51.44;99775.59;3147511;28;19982;-71
2022/03/29 05:35:34;;;;;;;;;;;;;;;12.09;51.26;99770.06;3147915;28;19928;-71
2022/03/29 05:37:06;;;;;;;;;;;;;;;12.22;51.00;99778.97;3147664;28;20018;-71
2022/03/29 05:38:37;;;;;;;;;;;;;;;12.34;50.67;99780.09;3146439;28;19928;-69
2022/03/29 05:40:10;;;;;;;;;;;;;;;12.43;50.36;99778.75;3146909;28;19978;-73
2022/03/29 05:41:42;;;;;;;;;;;;;;;12.53;50.00;99780.78;3149036;28;19932;-72
2022/03/29 05:43:15;;;;;;;;;;;;;;;12.65;50.00;99774.06;3144208;28;19925;-71
2022/03/29 05:44:46;;;;;;;;;;;;;;;12.71;49.56;99768.50;3144191;28;19988;-71
2022/03/29 05:49:57;;;;;;;;;;;;;;;13.26;48.90;99775.09;3143757;28;20019;-68
2022/03/29 05:51:30;;;;;;;;;;;;;;;13.41;48.32;99779.44;3146104;28;20011;-69
2022/03/29 05:53:03;;;;;;;;;;;;;;;13.53;48.29;99771.81;3146057;28;20052;-69
2022/03/29 05:54:35;;;;;;;;;;;;;;;13.68;48.01;99773.53;3144988;28;20007;-68
2022/03/29 05:56:06;;;;;;;;;;;;;;;13.89;47.49;99772.28;3145541;28;20836;-68
2022/03/29 05:57:38;;;;;;;;;;;;;;;14.11;47.28;99766.63;3144029;28;19993;-68
2022/03/29 05:59:11;;;;;;;;;;;;;;;14.33;47.04;99771.38;3144224;28;19924;-65
2022/03/29 06:00:43;;;;;;;;;;;;;;;14.69;46.56;99764.81;3145035;28;19925;-66
2022/03/29 06:02:15;;;;;;;;;;;;;;;15.31;45.85;99774.88;3144723;28;19954;-66
2022/03/29 06:03:46;;;;;;;;;;;;;;;16.04;45.12;99769.16;3146952;28;19928;-67
2022/03/29 06:05:18;;;;;;;;;;;;;;;16.83;43.81;99772.47;3146676;28;19993;-68
2022/03/29 06:06:50;;;;;;;;;;;;;;;17.56;42.66;99771.47;3152561;28;19981;-71
2022/03/29 06:08:21;;;;;;;;;;;;;;;18.30;41.65;99761.47;3149103;28;20010;-71
2022/03/29 06:09:53;;;;;;;;;;;;;;;19.00;40.57;99763.00;3150839;28;20027;-71
2022/03/29 06:11:25;;;;;;;;;;;;;;;19.68;39.36;99757.47;3149748;28;20278;-72
2022/03/29 06:12:56;;;;;;;;;;;;;;;20.31;38.41;99758.22;3150617;28;19929;-72
2022/03/29 06:14:29;;;;;;;;;;;;;;;20.95;37.56;99758.91;3151496;28;19989;-71
2022/03/29 06:16:02;;;;;;;;;;;;;;;21.53;36.49;99756.28;3149212;28;20021;-71
2022/03/29 06:17:34;;;;;;;;;;;;;;;22.09;35.69;99752.84;3150128;28;19929;-69
2022/03/29 06:19:06;;;;;;;;;;;;;;;22.66;34.78;99752.78;3147866;28;20374;-71
2022/03/29 06:20:38;;;;;;;;;;;;;;;23.25;34.04;99754.09;3146468;28;19924;-71
2022/03/29 06:22:09;;;;;;;;;;;;;;;23.85;33.07;99750.78;3149269;28;19985;-70
2022/03/29 06:23:41;;;;;;;;;;;;;;;24.50;32.26;99748.50;3151045;28;19932;-72
2022/03/29 06:25:13;;;;;;;;;;;;;;;25.13;31.46;99754.34;3148456;28;19936;-68
2022/03/29 06:26:45;;;;;;;;;;;;;;;25.69;30.63;99758.06;3147421;28;19928;-71
2022/03/29 06:28:17;;;;;;;;;;;;;;;26.20;29.51;99747.16;3145096;28;19929;-68
2022/03/29 06:29:50;;;;;;;;;;;;;;;26.69;28.62;99739.00;3150125;28;19986;-70
2022/03/29 06:31:22;;;;;;;;;;;;;;;27.15;27.80;99742.59;3151599;28;19943;-72
2022/03/29 06:32:54;;;;;;;;;;;;;;;27.62;27.42;99735.34;3144498;28;19928;-70
2022/03/29 06:34:26;;;;;;;;;;;;;;;28.06;26.65;99738.09;3151822;28;19928;-71
2022/03/29 06:35:58;;;;;;;;;;;;;;;28.48;26.01;99738.50;3148004;28;20023;-71
2022/03/29 06:37:29;;;;;;;;;;;;;;;28.85;25.79;99732.13;3146767;28;19934;-70
2022/03/29 06:39:01;;;;;;;;;;;;;;;29.19;25.13;99741.38;3147903;28;19983;-69
2022/03/29 06:40:33;;;;;;;;;;;;;;;29.53;24.46;99739.84;3149902;28;19928;-69
2022/03/29 06:42:04;;;;;;;;;;;;;;;29.90;24.41;99726.13;3146882;28;19924;-68
2022/03/29 06:43:36;;;;;;;;;;;;;;;30.27;23.74;99734.81;3148720;28;19940;-72
2022/03/29 06:45:10;;;;;;;;;;;;;;;30.60;23.36;99729.56;3149584;28;20209;-71
2022/03/29 06:46:42;;;;;;;;;;;;;;;30.93;22.84;99728.88;3146001;28;19981;-72
2022/03/29 06:48:13;;;;;;;;;;;;;;;31.28;22.49;99726.03;3148186;28;19986;-71
2022/03/29 06:49:45;;;;;;;;;;;;;;;31.49;21.55;99723.16;3148179;28;19925;-72
2022/03/29 06:51:18;;;;;;;;;;;;;;;31.66;20.90;99722.75;3149856;28;19975;-72
2022/03/29 06:52:50;;;;;;;;;;;;;;;31.84;21.41;99716.72;3148916;28;19924;-68
2022/03/29 06:54:21;;;;;;;;;;;;;;;32.09;20.87;99717.72;3148565;28;19928;-68
2022/03/29 06:55:53;;;;;;;;;;;;;;;32.27;20.71;99719.78;3151348;28;20061;-68
2022/03/29 06:57:25;;;;;;;;;;;;;;;32.32;20.06;99717.25;3145972;28;20022;-68
2022/03/29 06:58:56;;;;;;;;;;;;;;;32.38;19.74;99720.97;3147634;28;19928;-68
2022/03/29 07:00:29;;;;;;;;;;;;;;;32.39;19.75;99720.75;3148309;28;19928;-69
2022/03/29 07:02:01;;;;;;;;;;;;;;;32.47;19.54;99718.88;3146222;28;19940;-72
2022/03/29 07:03:34;;;;;;;;;;;;;;;32.58;19.31;99719.03;3150290;28;20389;-71
2022/03/29 07:05:07;;;;;;;;;;;;;;;32.65;19.12;99724.38;3148173;28;20402;-68
2022/03/29 07:06:39;;;;;;;;;;;;;;;32.77;18.99;99717.25;3148268;28;19924;-71
2022/03/29 07:08:11;;;;;;;;;;;;;;;32.91;18.78;99715.31;3146357;28;20013;-71
2022/03/29 07:11:31;;;;;;;;;;;;;;;33.41;18.30;99717.28;3145284;28;19975;-72
2022/03/29 07:13:03;;;;;;;;;;;;;;;33.77;18.20;99718.44;3149414;28;19931;-70
2022/03/29 07:14:35;;;;;;;;;;;;;;;34.13;17.90;99718.50;3144958;28;19928;-68
2022/03/29 07:16:09;;;;;;;;;;;;;;;34.35;17.53;99713.47;3144482;28;19951;-69
2022/03/29 07:17:40;;;;;;;;;;;;;;;34.47;17.33;99699.19;3148203;28;20386;-67
2022/03/29 07:19:12;;;;;;;;;;;;;;;34.40;17.21;99704.66;3145756;28;19950;-70
2022/03/29 07:20:44;;;;;;;;;;;;;;;34.51;17.28;99694.97;3144958;28;19940;-68
2022/03/29 07:22:16;;;;;;;;;;;;;;;34.53;17.01;99695.56;3146396;28;19931;-69
2022/03/29 07:23:48;;;;;;;;;;;;;;;34.57;17.21;99694.91;3146749;28;19935;-75
2022/03/29 07:25:21;;;;;;;;;;;;;;;34.60;17.01;99697.16;3147828;28;20360;-73
2022/03/29 07:26:53;;;;;;;;;;;;;;;34.55;16.89;99691.63;3147219;28;20068;-74
2022/03/29 07:28:24;;;;;;;;;;;;;;;34.50;16.57;99694.16;3145140;28;19929;-74
2022/03/29 07:29:57;;;;;;;;;;;;;;;34.39;16.84;99700.31;3147501;28;19928;-68
2022/03/29 07:31:29;;;;;;;;;;;;;;;34.32;17.02;99696.88;3150106;28;19928;-75
2022/03/29 07:33:01;;;;;;;;;;;;;;;34.29;17.00;99697.34;3145696;28;20015;-75
2022/03/29 07:34:35;;;;;;;;;;;;;;;34.31;16.80;99697.91;3146503;28;20391;-75
2022/03/29 07:36:07;;;;;;;;;;;;;;;34.24;16.83;99694.47;3148220;28;20403;-75
2022/03/29 07:37:39;;;;;;;;;;;;;;;34.02;16.54;99694.91;3146993;28;19924;-74
2022/03/29 07:39:11;;;;;;;;;;;;;;;33.70;16.89;99692.34;3145311;28;19984;-75
2022/03/29 07:40:43;;;;;;;;;;;;;;;33.37;16.70;99691.78;3148648;28;19936;-75
2022/03/29 07:42:15;;;;;;;;;;;;;;;33.00;17.10;99686.25;3147622;28;19928;-71
2022/03/29 07:43:47;;;;;;;;;;;;;;;32.66;17.41;99684.78;3146003;28;19929;-75
2022/03/29 07:45:19;;;;;;;;;;;;;;;32.04;17.56;99681.72;3146201;28;20022;-75
2022/03/29 07:46:52;;;;;;;;;;;;;;;31.70;17.77;99681.75;3147713;28;19989;-76
2022/03/29 07:48:24;;;;;;;;;;;;;;;31.47;18.19;99689.44;3146359;28;20459;-74
2022/03/29 07:49:56;;;;;;;;;;;;;;;31.29;18.05;99690.03;3146195;28;19975;-75
2022/03/29 07:51:28;;;;;;;;;;;;;;;31.14;18.23;99681.31;3147350;28;19928;-80
2022/03/29 07:53:00;;;;;;;;;;;;;;;30.95;18.54;99683.78;3146163;28;19986;-71
2022/03/29 07:54:31;;;;;;;;;;;;;;;30.76;18.46;99669.28;3146069;28;19935;-74
2022/03/29 07:56:04;;;;;;;;;;;;;;;30.58;18.24;99672.50;3148056;28;19938;-68
2022/03/29 07:57:35;;;;;;;;;;;;;;;30.33;18.46;99677.59;3148725;28;19935;-69
2022/03/29 07:59:07;;;;;;;;;;;;;;;30.01;18.82;99676.38;3145652;28;19929;-69
2022/03/29 08:00:39;;;;;;;;;;;;;;;29.73;19.11;99675.59;3146234;28;19928;-69
2022/03/29 08:02:12;;;;;;;;;;;;;;;29.49;18.91;99672.31;3149336;28;19928;-69
2022/03/29 08:03:44;;;;;;;;;;;;;;;29.22;18.84;99677.47;3147529;28;19986;-69
2022/03/29 08:05:15;;;;;;;;;;;;;;;29.00;19.34;99673.09;3146061;28;19925;-71
2022/03/29 08:06:47;;;;;;;;;;;;;;;28.82;19.28;99667.38;3146731;28;20527;-69
2022/03/29 08:08:19;;;;;;;;;;;;;;;28.67;19.33;99662.06;3148067;28;19994;-74